createdAt,value
2023-02-09T00:02:48.433Z,221.47748
2023-02-09T00:07:49.339Z,222.73303
2023-02-09T00:12:50.259Z,222.73303
2023-02-09T00:17:51.221Z,224.0
2023-02-09T00:22:52.186Z,226.56881
2023-02-09T00:27:53.250Z,226.56881
2023-02-09T00:32:54.198Z,226.56881
2023-02-09T00:37:55.122Z,227.87097
2023-02-09T00:42:56.034Z,227.87097
2023-02-09T00:47:56.984Z,227.87097
2023-02-09T00:52:57.901Z,227.87097
2023-02-09T00:57:58.833Z,229.18519
2023-02-09T01:02:59.796Z,229.18519
2023-02-09T01:08:00.730Z,230.51163
2023-02-09T01:13:01.641Z,230.51163
2023-02-09T01:18:02.620Z,229.18519
2023-02-09T01:23:03.634Z,229.18519
2023-02-09T01:28:04.727Z,230.51163
2023-02-09T01:33:05.690Z,229.18519
2023-02-09T01:38:06.627Z,229.18519
2023-02-09T01:43:07.549Z,227.87097
2023-02-09T01:48:08.470Z,227.87097
2023-02-09T01:53:09.396Z,227.87097
2023-02-09T01:58:10.368Z,227.87097
2023-02-09T02:03:11.318Z,227.87097
2023-02-09T02:08:12.270Z,227.87097
2023-02-09T02:13:13.155Z,227.87097
2023-02-09T02:18:14.091Z,227.87097
2023-02-09T02:23:15.036Z,227.87097
2023-02-09T02:28:16.015Z,227.87097
2023-02-09T02:33:17.008Z,227.87097
2023-02-09T02:38:17.943Z,227.87097
2023-02-09T02:43:18.874Z,227.87097
2023-02-09T02:48:19.828Z,227.87097
2023-02-09T02:53:20.929Z,229.18519
2023-02-09T02:58:21.869Z,229.18519
2023-02-09T03:03:22.862Z,227.87097
2023-02-09T03:08:24.000Z,227.87097
2023-02-09T03:13:25.767Z,227.87097
2023-02-09T03:18:27.033Z,227.87097
2023-02-09T03:23:28.112Z,229.18519
2023-02-09T03:28:29.166Z,229.18519
2023-02-09T03:33:30.147Z,229.18519
2023-02-09T03:38:31.081Z,229.18519
2023-02-09T03:43:31.995Z,229.18519
2023-02-09T03:48:33.087Z,229.18519
2023-02-09T03:53:34.042Z,229.18519
2023-02-09T03:58:35.073Z,229.18519
2023-02-09T04:03:35.986Z,229.18519
2023-02-09T04:08:37.083Z,229.18519
2023-02-09T04:13:38.020Z,230.51163
2023-02-09T04:18:38.958Z,231.85047
2023-02-09T04:23:39.926Z,230.51163
2023-02-09T04:28:40.971Z,230.51163
2023-02-09T04:33:41.940Z,230.51163
2023-02-09T04:38:42.872Z,229.18519
2023-02-09T04:43:43.819Z,227.87097
2023-02-09T04:48:44.778Z,226.56881
2023-02-09T04:53:45.713Z,225.27854
2023-02-09T04:58:46.714Z,222.73303
2023-02-09T05:03:47.704Z,222.73303
2023-02-09T05:08:48.780Z,224.0
2023-02-09T05:13:49.716Z,224.0
2023-02-09T05:18:50.648Z,225.27854
2023-02-09T05:23:51.578Z,224.0
2023-02-09T05:28:52.558Z,222.73303
2023-02-09T05:33:53.527Z,221.47748
2023-02-09T05:38:54.447Z,219.0
2023-02-09T05:43:55.363Z,217.77778
2023-02-09T05:48:56.441Z,216.56637
2023-02-09T05:53:57.370Z,215.36564
2023-02-09T05:58:58.303Z,214.17544
2023-02-09T06:03:59.216Z,212.99563
2023-02-09T06:09:00.161Z,210.66667
2023-02-09T06:14:01.126Z,210.66667
2023-02-09T06:19:02.188Z,210.66667
2023-02-09T06:24:03.105Z,209.51724
2023-02-09T06:29:04.076Z,208.37768
2023-02-09T06:34:04.980Z,208.37768
2023-02-09T06:39:05.921Z,209.51724
2023-02-09T06:44:06.864Z,208.37768
2023-02-09T06:49:07.774Z,208.37768
2023-02-09T06:54:08.783Z,209.51724
2023-02-09T06:59:09.669Z,210.66667
2023-02-09T07:04:10.567Z,210.66667
2023-02-09T07:09:11.554Z,209.51724
2023-02-09T07:14:12.496Z,209.51724
2023-02-09T07:19:13.452Z,209.51724
2023-02-09T07:24:14.362Z,209.51724
2023-02-09T07:29:15.322Z,207.24786
2023-02-09T07:34:16.224Z,209.51724
2023-02-09T07:39:17.214Z,211.82609
2023-02-09T07:44:18.368Z,212.99563
2023-02-09T07:49:19.379Z,214.17544
2023-02-09T07:54:20.318Z,215.36564
2023-02-09T07:59:21.264Z,216.56637
2023-02-09T08:04:22.187Z,217.77778
2023-02-09T08:09:23.120Z,216.56637
2023-02-09T08:14:24.270Z,217.77778
2023-02-09T08:19:25.519Z,216.56637
2023-02-09T08:24:26.693Z,215.36564
2023-02-09T08:29:27.662Z,214.17544
2023-02-09T08:34:28.628Z,220.23318
2023-02-09T08:39:29.566Z,227.87097
2023-02-09T08:44:30.495Z,224.0
2023-02-09T08:49:31.805Z,226.56881
2023-02-09T08:54:32.730Z,224.0
2023-02-09T08:59:33.654Z,226.56881
2023-02-09T09:04:34.597Z,227.87097
2023-02-09T09:09:35.562Z,227.87097
2023-02-09T09:14:36.478Z,226.56881
2023-02-09T09:19:37.415Z,231.85047
2023-02-09T09:24:38.345Z,229.18519
2023-02-09T09:29:39.317Z,229.18519
2023-02-09T09:34:40.237Z,230.51163
2023-02-09T09:39:41.235Z,227.87097
2023-02-09T09:44:42.172Z,224.0
2023-02-09T09:49:43.125Z,206.12766
2023-02-09T09:54:44.063Z,188.44444
2023-02-09T09:59:44.996Z,180.92308
2023-02-09T10:04:45.968Z,170.47059
2023-02-09T10:09:46.929Z,166.38267
2023-02-09T10:14:48.016Z,175.57895
2023-02-09T10:19:48.954Z,190.4
2023-02-09T10:24:49.866Z,191.38956
2023-02-09T10:29:50.922Z,187.47826
2023-02-09T10:34:51.833Z,193.39271
2023-02-09T10:39:52.794Z,195.42857
2023-02-09T10:44:53.699Z,193.39271
2023-02-09T10:49:54.642Z,196.45902
2023-02-09T10:54:55.555Z,196.45902
2023-02-09T10:59:56.581Z,208.37768
2023-02-09T11:04:57.501Z,209.51724
2023-02-09T11:09:58.456Z,207.24786
2023-02-09T11:14:59.427Z,207.24786
2023-02-09T11:20:00.377Z,215.36564
2023-02-09T11:25:01.329Z,220.23318
2023-02-09T11:30:02.384Z,226.56881
2023-02-09T11:35:03.318Z,219.0
2023-02-09T11:40:04.258Z,219.0
2023-02-09T11:45:07.320Z,216.56637
2023-02-09T11:50:09.626Z,214.17544
2023-02-09T11:55:10.541Z,207.24786
2023-02-09T12:00:11.463Z,210.66667
2023-02-09T12:05:12.420Z,215.36564
2023-02-09T12:10:13.437Z,208.37768
2023-02-09T12:15:14.359Z,199.60166
2023-02-09T12:20:15.300Z,194.4065
2023-02-09T12:25:16.236Z,197.49794
2023-02-09T12:30:17.192Z,212.99563
2023-02-09T12:35:18.196Z,210.66667
2023-02-09T12:40:19.122Z,209.51724
2023-02-09T12:45:20.020Z,209.51724
2023-02-09T12:50:20.971Z,210.66667
2023-02-09T12:55:21.860Z,210.66667
2023-02-09T13:00:22.797Z,194.4065
2023-02-09T13:05:23.883Z,195.42857
2023-02-09T13:10:25.103Z,187.47826
2023-02-09T13:15:26.344Z,193.39271
2023-02-09T13:20:27.284Z,201.74059
2023-02-09T13:25:28.184Z,214.17544
2023-02-09T13:30:29.140Z,214.17544
2023-02-09T13:35:30.091Z,212.99563
2023-02-09T13:40:31.012Z,220.23318
2023-02-09T13:45:32.167Z,221.47748
2023-02-09T13:50:33.104Z,221.47748
2023-02-09T13:55:33.989Z,224.0
2023-02-09T14:00:34.973Z,221.47748
2023-02-09T14:05:35.986Z,224.0
2023-02-09T14:10:36.928Z,222.73303
2023-02-09T14:15:37.829Z,221.47748
2023-02-09T14:20:39.478Z,220.23318
2023-02-09T14:25:40.406Z,216.56637
2023-02-09T14:30:41.468Z,215.36564
2023-02-09T14:35:42.474Z,221.47748
2023-02-09T14:40:43.533Z,216.56637
2023-02-09T14:45:44.959Z,216.56637
2023-02-09T14:50:46.149Z,214.17544
2023-02-09T14:55:47.582Z,212.99563
2023-02-09T15:00:48.760Z,211.82609
2023-02-09T15:05:49.694Z,214.17544
2023-02-09T15:10:50.635Z,211.82609
2023-02-09T15:15:51.646Z,215.36564
2023-02-09T15:20:52.642Z,212.99563
2023-02-09T15:25:53.548Z,212.99563
2023-02-09T15:30:54.498Z,212.99563
2023-02-09T15:35:57.544Z,211.82609
2023-02-09T15:40:59.272Z,209.51724
2023-02-09T15:46:00.429Z,210.66667
2023-02-09T15:51:01.386Z,215.36564
2023-02-09T15:56:02.372Z,214.17544
2023-02-09T16:01:03.368Z,210.66667
2023-02-09T16:06:04.273Z,209.51724
2023-02-09T16:11:05.269Z,206.12766
2023-02-09T16:16:16.646Z,203.91561
2023-02-09T16:21:18.123Z,202.82353
2023-02-09T16:26:19.072Z,203.91561
2023-02-09T16:31:20.075Z,209.51724
2023-02-09T16:36:21.040Z,210.66667
2023-02-09T16:41:21.984Z,208.37768
2023-02-09T16:46:22.988Z,207.24786
2023-02-09T16:51:23.921Z,205.01695
2023-02-09T16:56:25.164Z,205.01695
2023-02-09T17:01:26.537Z,205.01695
2023-02-09T17:06:28.064Z,205.01695
2023-02-09T17:11:29.116Z,205.01695
2023-02-09T17:16:30.178Z,205.01695
2023-02-09T17:21:31.293Z,205.01695
2023-02-09T17:26:32.223Z,205.01695
2023-02-09T17:31:46.997Z,202.82353
2023-02-09T17:36:53.243Z,201.74059
2023-02-09T17:41:54.196Z,205.01695
2023-02-09T17:46:55.140Z,207.24786
2023-02-09T17:51:56.318Z,207.24786
2023-02-09T17:56:57.256Z,206.12766
2023-02-09T18:01:58.606Z,207.24786
2023-02-09T18:06:59.498Z,210.66667
2023-02-09T18:12:00.472Z,210.66667
2023-02-09T18:17:03.013Z,209.51724
2023-02-09T18:22:04.181Z,210.66667
2023-02-09T18:27:05.116Z,212.99563
2023-02-09T18:32:06.057Z,214.17544
2023-02-09T18:37:06.941Z,212.99563
2023-02-09T18:42:07.848Z,215.36564
2023-02-09T18:47:08.806Z,216.56637
2023-02-09T18:52:09.755Z,216.56637
2023-02-09T18:57:10.665Z,215.36564
2023-02-09T19:02:11.606Z,212.99563
2023-02-09T19:07:12.609Z,214.17544
2023-02-09T19:12:13.548Z,214.17544
2023-02-09T19:17:14.472Z,216.56637
2023-02-09T19:22:15.383Z,217.77778
2023-02-09T19:27:16.307Z,219.0
2023-02-09T19:32:17.252Z,220.23318
2023-02-09T19:37:18.193Z,219.0
2023-02-09T19:42:19.195Z,219.0
2023-02-09T19:47:20.155Z,221.47748
2023-02-09T19:52:21.124Z,220.23318
2023-02-09T19:57:22.052Z,222.73303
2023-02-09T20:02:22.971Z,222.73303
2023-02-09T20:07:23.864Z,221.47748
2023-02-09T20:12:25.098Z,220.23318
2023-02-09T20:17:26.699Z,220.23318
2023-02-09T20:22:27.944Z,219.0
2023-02-09T20:27:28.891Z,219.0
2023-02-09T20:32:29.906Z,216.56637
2023-02-09T20:37:30.886Z,217.77778
2023-02-09T20:42:31.813Z,216.56637
2023-02-09T20:47:32.769Z,217.77778
2023-02-09T20:52:33.712Z,219.0
2023-02-09T20:57:34.632Z,220.23318
2023-02-09T21:02:35.645Z,221.47748
2023-02-09T21:07:36.628Z,220.23318
2023-02-09T21:12:37.586Z,219.0
2023-02-09T21:17:38.501Z,219.0
2023-02-09T21:22:39.436Z,220.23318
2023-02-09T21:27:40.388Z,219.0
2023-02-09T21:32:41.441Z,219.0
2023-02-09T21:37:42.449Z,219.0
2023-02-09T21:42:43.404Z,217.77778
2023-02-09T21:47:44.384Z,217.77778
2023-02-09T21:52:45.589Z,219.0
2023-02-09T21:57:46.523Z,217.77778
2023-02-09T22:02:47.483Z,217.77778
2023-02-09T22:07:48.543Z,216.56637
2023-02-09T22:12:49.481Z,217.77778
2023-02-09T22:17:50.415Z,216.56637
2023-02-09T22:22:51.351Z,217.77778
2023-02-09T22:27:52.304Z,217.77778
2023-02-09T22:32:53.323Z,216.56637
2023-02-09T22:37:56.252Z,215.36564
2023-02-09T22:42:57.184Z,215.36564
2023-02-09T22:47:58.088Z,216.56637
2023-02-09T22:52:59.077Z,216.56637
2023-02-09T22:58:00.034Z,215.36564
2023-02-09T23:03:01.006Z,212.99563
2023-02-09T23:08:02.007Z,212.99563
2023-02-09T23:13:02.967Z,211.82609
2023-02-09T23:18:03.920Z,210.66667
2023-02-09T23:23:04.827Z,208.37768
2023-02-09T23:28:05.876Z,207.24786
2023-02-09T23:33:06.851Z,207.24786
2023-02-09T23:38:07.753Z,208.37768
2023-02-09T23:43:08.810Z,208.37768
2023-02-09T23:48:09.731Z,209.51724
2023-02-09T23:53:10.656Z,208.37768
2023-02-09T23:58:11.571Z,209.51724
